sensor_id;sensor_type;location;lat;lon;timestamp;temperature;humidity
15262;DHT22;7733;51.554;13.590;2024-02-23T00:00:11;11.10;99.90
15262;DHT22;7733;51.554;13.590;2024-02-23T00:02:38;11.20;99.90
15262;DHT22;7733;51.554;13.590;2024-02-23T00:05:04;11.20;99.90
15262;DHT22;7733;51.554;13.590;2024-02-23T00:07:30;11.30;99.90
15262;DHT22;7733;51.554;13.590;2024-02-23T00:09:56;11.40;99.90
15262;DHT22;7733;51.554;13.590;2024-02-23T00:12:21;11.60;99.90
15262;DHT22;7733;51.554;13.590;2024-02-23T00:14:47;11.70;99.90
15262;DHT22;7733;51.554;13.590;2024-02-23T00:17:13;11.90;99.90
15262;DHT22;7733;51.554;13.590;2024-02-23T00:19:39;12.10;99.90
15262;DHT22;7733;51.554;13.590;2024-02-23T00:22:04;12.10;99.90
15262;DHT22;7733;51.554;13.590;2024-02-23T00:24:30;12.00;99.90
15262;DHT22;7733;51.554;13.590;2024-02-23T00:26:56;12.10;99.90
15262;DHT22;7733;51.554;13.590;2024-02-23T00:29:22;12.00;99.90
15262;DHT22;7733;51.554;13.590;2024-02-23T00:31:48;12.20;99.90
15262;DHT22;7733;51.554;13.590;2024-02-23T00:34:14;12.20;99.90
15262;DHT22;7733;51.554;13.590;2024-02-23T00:36:41;12.20;99.90
15262;DHT22;7733;51.554;13.590;2024-02-23T00:39:08;12.10;99.90
15262;DHT22;7733;51.554;13.590;2024-02-23T00:41:34;12.10;99.90
15262;DHT22;7733;51.554;13.590;2024-02-23T00:44:01;12.30;99.90
15262;DHT22;7733;51.554;13.590;2024-02-23T00:46:30;12.40;99.90
15262;DHT22;7733;51.554;13.590;2024-02-23T00:48:56;12.40;99.90
15262;DHT22;7733;51.554;13.590;2024-02-23T00:51:22;12.20;99.90
15262;DHT22;7733;51.554;13.590;2024-02-23T00:53:48;12.30;99.90
15262;DHT22;7733;51.554;13.590;2024-02-23T00:56:14;12.40;99.90
15262;DHT22;7733;51.554;13.590;2024-02-23T00:58:40;12.30;99.90
15262;DHT22;7733;51.554;13.590;2024-02-23T01:01:05;12.30;99.90
15262;DHT22;7733;51.554;13.590;2024-02-23T01:03:31;12.30;99.90
15262;DHT22;7733;51.554;13.590;2024-02-23T01:05:58;12.20;99.90
15262;DHT22;7733;51.554;13.590;2024-02-23T01:08:23;12.20;99.90
15262;DHT22;7733;51.554;13.590;2024-02-23T01:10:49;12.40;99.90
15262;DHT22;7733;51.554;13.590;2024-02-23T01:13:15;12.40;99.90
15262;DHT22;7733;51.554;13.590;2024-02-23T01:15:41;12.40;99.90
15262;DHT22;7733;51.554;13.590;2024-02-23T01:18:07;12.40;99.90
15262;DHT22;7733;51.554;13.590;2024-02-23T01:20:33;12.40;99.90
15262;DHT22;7733;51.554;13.590;2024-02-23T01:22:59;12.40;99.90
15262;DHT22;7733;51.554;13.590;2024-02-23T01:25:25;12.40;99.90
15262;DHT22;7733;51.554;13.590;2024-02-23T01:27:51;12.40;99.90
15262;DHT22;7733;51.554;13.590;2024-02-23T01:30:17;12.30;99.90
15262;DHT22;7733;51.554;13.590;2024-02-23T01:32:44;12.20;99.90
15262;DHT22;7733;51.554;13.590;2024-02-23T01:35:10;12.30;99.90
15262;DHT22;7733;51.554;13.590;2024-02-23T01:37:36;12.30;99.90
15262;DHT22;7733;51.554;13.590;2024-02-23T01:40:03;12.30;99.90
15262;DHT22;7733;51.554;13.590;2024-02-23T01:42:29;12.20;99.90
15262;DHT22;7733;51.554;13.590;2024-02-23T01:44:55;12.20;99.90
15262;DHT22;7733;51.554;13.590;2024-02-23T01:47:24;12.20;99.90
15262;DHT22;7733;51.554;13.590;2024-02-23T01:49:50;12.30;99.90
15262;DHT22;7733;51.554;13.590;2024-02-23T01:52:17;12.20;99.90
15262;DHT22;7733;51.554;13.590;2024-02-23T01:54:44;12.10;99.90
15262;DHT22;7733;51.554;13.590;2024-02-23T01:57:10;12.10;99.90
15262;DHT22;7733;51.554;13.590;2024-02-23T01:59:37;12.10;99.90
15262;DHT22;7733;51.554;13.590;2024-02-23T02:02:04;12.10;99.90
15262;DHT22;7733;51.554;13.590;2024-02-23T02:04:30;12.10;99.90
15262;DHT22;7733;51.554;13.590;2024-02-23T02:06:57;12.10;99.90
15262;DHT22;7733;51.554;13.590;2024-02-23T02:09:25;12.10;99.90
15262;DHT22;7733;51.554;13.590;2024-02-23T02:11:51;12.00;99.90
15262;DHT22;7733;51.554;13.590;2024-02-23T02:14:17;12.10;99.90
15262;DHT22;7733;51.554;13.590;2024-02-23T02:16:44;12.00;99.90
15262;DHT22;7733;51.554;13.590;2024-02-23T02:19:11;12.00;99.90
15262;DHT22;7733;51.554;13.590;2024-02-23T02:21:37;12.00;99.90
15262;DHT22;7733;51.554;13.590;2024-02-23T02:24:04;12.00;99.90
15262;DHT22;7733;51.554;13.590;2024-02-23T02:26:30;12.00;99.90
15262;DHT22;7733;51.554;13.590;2024-02-23T02:28:56;12.00;99.90
15262;DHT22;7733;51.554;13.590;2024-02-23T02:31:22;11.90;99.90
15262;DHT22;7733;51.554;13.590;2024-02-23T02:33:48;11.90;99.90
15262;DHT22;7733;51.554;13.590;2024-02-23T02:36:13;11.90;99.90
15262;DHT22;7733;51.554;13.590;2024-02-23T02:38:39;11.80;99.90
15262;DHT22;7733;51.554;13.590;2024-02-23T02:41:05;11.80;99.90
15262;DHT22;7733;51.554;13.590;2024-02-23T02:43:31;11.80;99.90
15262;DHT22;7733;51.554;13.590;2024-02-23T02:45:58;11.80;99.90
15262;DHT22;7733;51.554;13.590;2024-02-23T02:48:24;11.80;99.90
15262;DHT22;7733;51.554;13.590;2024-02-23T02:50:50;11.70;99.90
15262;DHT22;7733;51.554;13.590;2024-02-23T02:53:17;11.70;99.90
15262;DHT22;7733;51.554;13.590;2024-02-23T02:55:43;11.70;99.90
15262;DHT22;7733;51.554;13.590;2024-02-23T02:58:12;11.70;99.90
15262;DHT22;7733;51.554;13.590;2024-02-23T03:00:39;11.80;99.90
15262;DHT22;7733;51.554;13.590;2024-02-23T03:03:05;11.70;99.90
15262;DHT22;7733;51.554;13.590;2024-02-23T03:05:31;11.70;99.90
15262;DHT22;7733;51.554;13.590;2024-02-23T03:07:56;11.60;99.90
15262;DHT22;7733;51.554;13.590;2024-02-23T03:10:22;11.60;99.90
15262;DHT22;7733;51.554;13.590;2024-02-23T03:12:48;11.60;99.90
15262;DHT22;7733;51.554;13.590;2024-02-23T03:15:13;11.60;99.90
15262;DHT22;7733;51.554;13.590;2024-02-23T03:17:40;11.60;99.90
15262;DHT22;7733;51.554;13.590;2024-02-23T03:20:06;11.50;99.90
15262;DHT22;7733;51.554;13.590;2024-02-23T03:22:36;11.50;99.90
15262;DHT22;7733;51.554;13.590;2024-02-23T03:25:03;11.50;99.90
15262;DHT22;7733;51.554;13.590;2024-02-23T03:27:34;11.50;99.90
15262;DHT22;7733;51.554;13.590;2024-02-23T03:30:04;11.40;99.90
15262;DHT22;7733;51.554;13.590;2024-02-23T03:32:33;11.40;99.90
15262;DHT22;7733;51.554;13.590;2024-02-23T03:35:08;11.40;99.90
15262;DHT22;7733;51.554;13.590;2024-02-23T03:37:34;11.40;99.90
15262;DHT22;7733;51.554;13.590;2024-02-23T03:39:59;11.40;99.90
15262;DHT22;7733;51.554;13.590;2024-02-23T03:42:26;11.30;99.90
15262;DHT22;7733;51.554;13.590;2024-02-23T03:44:52;11.30;99.90
15262;DHT22;7733;51.554;13.590;2024-02-23T03:47:18;11.30;99.90
15262;DHT22;7733;51.554;13.590;2024-02-23T03:49:44;11.30;99.90
15262;DHT22;7733;51.554;13.590;2024-02-23T03:52:10;11.30;99.90
15262;DHT22;7733;51.554;13.590;2024-02-23T03:54:35;11.20;99.90
15262;DHT22;7733;51.554;13.590;2024-02-23T03:57:01;11.20;99.90
15262;DHT22;7733;51.554;13.590;2024-02-23T03:59:28;11.10;99.90
15262;DHT22;7733;51.554;13.590;2024-02-23T04:01:53;11.10;99.90
15262;DHT22;7733;51.554;13.590;2024-02-23T04:04:19;11.10;99.90
15262;DHT22;7733;51.554;13.590;2024-02-23T04:06:45;11.00;99.90
15262;DHT22;7733;51.554;13.590;2024-02-23T04:09:11;11.00;99.90
15262;DHT22;7733;51.554;13.590;2024-02-23T04:11:37;11.00;99.90
15262;DHT22;7733;51.554;13.590;2024-02-23T04:14:02;11.00;99.90
15262;DHT22;7733;51.554;13.590;2024-02-23T04:16:30;10.90;99.90
15262;DHT22;7733;51.554;13.590;2024-02-23T04:18:57;10.90;99.90
15262;DHT22;7733;51.554;13.590;2024-02-23T04:21:23;10.80;99.90
15262;DHT22;7733;51.554;13.590;2024-02-23T04:23:49;10.70;99.90
15262;DHT22;7733;51.554;13.590;2024-02-23T04:26:14;10.60;99.90
15262;DHT22;7733;51.554;13.590;2024-02-23T04:28:41;10.60;99.90
15262;DHT22;7733;51.554;13.590;2024-02-23T04:31:10;10.50;99.90
15262;DHT22;7733;51.554;13.590;2024-02-23T04:33:37;10.50;99.90
15262;DHT22;7733;51.554;13.590;2024-02-23T04:36:03;10.40;99.90
15262;DHT22;7733;51.554;13.590;2024-02-23T04:38:30;10.40;99.90
15262;DHT22;7733;51.554;13.590;2024-02-23T04:40:57;10.40;99.90
15262;DHT22;7733;51.554;13.590;2024-02-23T04:43:24;10.40;99.90
15262;DHT22;7733;51.554;13.590;2024-02-23T04:45:51;10.30;99.90
15262;DHT22;7733;51.554;13.590;2024-02-23T04:48:17;10.30;99.90
15262;DHT22;7733;51.554;13.590;2024-02-23T04:50:43;10.20;99.90
15262;DHT22;7733;51.554;13.590;2024-02-23T04:53:08;10.10;99.90
15262;DHT22;7733;51.554;13.590;2024-02-23T04:55:34;10.00;99.90
15262;DHT22;7733;51.554;13.590;2024-02-23T04:58:00;10.00;99.90
15262;DHT22;7733;51.554;13.590;2024-02-23T05:00:25;10.00;99.90
15262;DHT22;7733;51.554;13.590;2024-02-23T05:02:59;9.90;99.90
15262;DHT22;7733;51.554;13.590;2024-02-23T05:05:29;9.90;99.90
15262;DHT22;7733;51.554;13.590;2024-02-23T05:07:56;9.90;99.90
15262;DHT22;7733;51.554;13.590;2024-02-23T05:10:21;9.80;99.90
15262;DHT22;7733;51.554;13.590;2024-02-23T05:12:48;9.70;99.90
15262;DHT22;7733;51.554;13.590;2024-02-23T05:15:14;9.80;99.90
15262;DHT22;7733;51.554;13.590;2024-02-23T05:17:40;9.80;99.90
15262;DHT22;7733;51.554;13.590;2024-02-23T05:20:06;9.70;99.90
15262;DHT22;7733;51.554;13.590;2024-02-23T05:22:36;9.60;99.90
15262;DHT22;7733;51.554;13.590;2024-02-23T05:25:02;9.50;99.90
15262;DHT22;7733;51.554;13.590;2024-02-23T05:27:30;9.50;99.90
15262;DHT22;7733;51.554;13.590;2024-02-23T05:29:56;9.40;99.90
15262;DHT22;7733;51.554;13.590;2024-02-23T05:32:22;9.40;99.90
15262;DHT22;7733;51.554;13.590;2024-02-23T05:34:48;9.40;99.90
15262;DHT22;7733;51.554;13.590;2024-02-23T05:37:17;9.30;99.90
15262;DHT22;7733;51.554;13.590;2024-02-23T05:39:43;9.30;99.90
15262;DHT22;7733;51.554;13.590;2024-02-23T05:42:09;9.30;99.90
15262;DHT22;7733;51.554;13.590;2024-02-23T05:44:36;9.30;99.90
15262;DHT22;7733;51.554;13.590;2024-02-23T05:47:01;9.30;99.90
15262;DHT22;7733;51.554;13.590;2024-02-23T05:49:27;9.30;99.90
15262;DHT22;7733;51.554;13.590;2024-02-23T05:51:53;9.20;99.90
15262;DHT22;7733;51.554;13.590;2024-02-23T05:54:19;9.20;99.90
15262;DHT22;7733;51.554;13.590;2024-02-23T05:56:44;9.10;99.90
15262;DHT22;7733;51.554;13.590;2024-02-23T05:59:11;9.20;99.90
15262;DHT22;7733;51.554;13.590;2024-02-23T06:01:37;9.20;99.90
15262;DHT22;7733;51.554;13.590;2024-02-23T06:04:03;9.10;99.90
15262;DHT22;7733;51.554;13.590;2024-02-23T06:06:28;9.10;99.90
15262;DHT22;7733;51.554;13.590;2024-02-23T06:08:54;9.10;99.90
15262;DHT22;7733;51.554;13.590;2024-02-23T06:11:20;9.10;99.90
15262;DHT22;7733;51.554;13.590;2024-02-23T06:13:47;9.00;99.90
15262;DHT22;7733;51.554;13.590;2024-02-23T06:16:13;9.00;99.90
15262;DHT22;7733;51.554;13.590;2024-02-23T06:18:39;8.90;99.90
15262;DHT22;7733;51.554;13.590;2024-02-23T06:21:14;8.90;99.90
15262;DHT22;7733;51.554;13.590;2024-02-23T06:23:41;9.00;99.90
15262;DHT22;7733;51.554;13.590;2024-02-23T06:26:07;9.00;99.90
15262;DHT22;7733;51.554;13.590;2024-02-23T06:28:33;9.00;99.90
15262;DHT22;7733;51.554;13.590;2024-02-23T06:30:59;9.00;99.90
15262;DHT22;7733;51.554;13.590;2024-02-23T06:33:24;8.90;99.90
15262;DHT22;7733;51.554;13.590;2024-02-23T06:35:50;8.90;99.90
15262;DHT22;7733;51.554;13.590;2024-02-23T06:38:17;8.80;99.90
15262;DHT22;7733;51.554;13.590;2024-02-23T06:40:43;8.90;99.90
15262;DHT22;7733;51.554;13.590;2024-02-23T06:43:09;8.90;99.90
15262;DHT22;7733;51.554;13.590;2024-02-23T06:45:35;8.80;99.90
15262;DHT22;7733;51.554;13.590;2024-02-23T06:48:00;8.80;99.90
15262;DHT22;7733;51.554;13.590;2024-02-23T06:50:26;8.70;99.90
15262;DHT22;7733;51.554;13.590;2024-02-23T06:52:52;8.70;99.90
15262;DHT22;7733;51.554;13.590;2024-02-23T06:55:18;8.70;99.90
15262;DHT22;7733;51.554;13.590;2024-02-23T06:57:43;8.70;99.90
15262;DHT22;7733;51.554;13.590;2024-02-23T07:00:09;8.80;99.90
15262;DHT22;7733;51.554;13.590;2024-02-23T07:02:36;8.70;99.90
15262;DHT22;7733;51.554;13.590;2024-02-23T07:05:03;8.70;99.90
15262;DHT22;7733;51.554;13.590;2024-02-23T07:07:34;8.70;99.90
15262;DHT22;7733;51.554;13.590;2024-02-23T07:10:00;8.70;99.90
15262;DHT22;7733;51.554;13.590;2024-02-23T07:12:27;8.70;99.90
15262;DHT22;7733;51.554;13.590;2024-02-23T07:14:56;8.70;99.90
15262;DHT22;7733;51.554;13.590;2024-02-23T07:17:22;8.70;99.90
15262;DHT22;7733;51.554;13.590;2024-02-23T07:19:48;8.70;99.90
15262;DHT22;7733;51.554;13.590;2024-02-23T07:22:13;8.80;99.90
15262;DHT22;7733;51.554;13.590;2024-02-23T07:24:44;8.80;99.90
15262;DHT22;7733;51.554;13.590;2024-02-23T07:27:10;8.80;99.90
15262;DHT22;7733;51.554;13.590;2024-02-23T07:29:36;8.90;99.90
15262;DHT22;7733;51.554;13.590;2024-02-23T07:32:02;8.80;99.90
15262;DHT22;7733;51.554;13.590;2024-02-23T07:34:28;8.70;99.90
15262;DHT22;7733;51.554;13.590;2024-02-23T07:36:54;8.70;99.90
15262;DHT22;7733;51.554;13.590;2024-02-23T07:39:21;8.70;99.90
15262;DHT22;7733;51.554;13.590;2024-02-23T07:41:47;8.60;99.90
15262;DHT22;7733;51.554;13.590;2024-02-23T07:44:13;8.60;99.90
15262;DHT22;7733;51.554;13.590;2024-02-23T07:46:39;8.60;99.90
15262;DHT22;7733;51.554;13.590;2024-02-23T07:49:05;8.60;99.90
15262;DHT22;7733;51.554;13.590;2024-02-23T07:51:35;8.60;99.90
15262;DHT22;7733;51.554;13.590;2024-02-23T07:54:01;8.70;99.90
15262;DHT22;7733;51.554;13.590;2024-02-23T07:56:27;8.60;99.90
15262;DHT22;7733;51.554;13.590;2024-02-23T07:58:54;8.70;99.90
15262;DHT22;7733;51.554;13.590;2024-02-23T08:01:20;8.70;99.90
15262;DHT22;7733;51.554;13.590;2024-02-23T08:03:45;8.60;99.90
15262;DHT22;7733;51.554;13.590;2024-02-23T08:06:11;8.60;99.90
15262;DHT22;7733;51.554;13.590;2024-02-23T08:08:38;8.60;99.90
15262;DHT22;7733;51.554;13.590;2024-02-23T08:11:04;8.60;99.90
15262;DHT22;7733;51.554;13.590;2024-02-23T08:13:30;8.50;99.90
15262;DHT22;7733;51.554;13.590;2024-02-23T08:15:57;8.50;99.90
15262;DHT22;7733;51.554;13.590;2024-02-23T08:18:23;8.60;99.90
15262;DHT22;7733;51.554;13.590;2024-02-23T08:20:49;8.50;99.90
15262;DHT22;7733;51.554;13.590;2024-02-23T08:23:15;8.50;99.90
15262;DHT22;7733;51.554;13.590;2024-02-23T08:25:41;8.60;99.90
15262;DHT22;7733;51.554;13.590;2024-02-23T08:28:06;8.50;99.90
15262;DHT22;7733;51.554;13.590;2024-02-23T08:30:33;8.50;99.90
15262;DHT22;7733;51.554;13.590;2024-02-23T08:32:59;8.50;99.90
15262;DHT22;7733;51.554;13.590;2024-02-23T08:35:25;8.50;99.90
15262;DHT22;7733;51.554;13.590;2024-02-23T08:37:51;8.50;99.90
15262;DHT22;7733;51.554;13.590;2024-02-23T08:40:16;8.50;99.90
15262;DHT22;7733;51.554;13.590;2024-02-23T08:42:42;8.40;99.90
15262;DHT22;7733;51.554;13.590;2024-02-23T08:45:08;8.40;99.90
15262;DHT22;7733;51.554;13.590;2024-02-23T08:47:41;8.50;99.90
15262;DHT22;7733;51.554;13.590;2024-02-23T08:50:07;8.40;99.90
15262;DHT22;7733;51.554;13.590;2024-02-23T08:52:33;8.60;99.90
15262;DHT22;7733;51.554;13.590;2024-02-23T08:54:59;8.70;99.90
15262;DHT22;7733;51.554;13.590;2024-02-23T08:57:27;8.70;99.90
15262;DHT22;7733;51.554;13.590;2024-02-23T08:59:53;8.70;99.90
15262;DHT22;7733;51.554;13.590;2024-02-23T09:02:19;8.70;99.90
15262;DHT22;7733;51.554;13.590;2024-02-23T09:04:45;8.70;99.90
15262;DHT22;7733;51.554;13.590;2024-02-23T09:07:12;8.80;99.90
15262;DHT22;7733;51.554;13.590;2024-02-23T09:09:38;8.80;99.90
15262;DHT22;7733;51.554;13.590;2024-02-23T09:12:04;8.80;99.90
15262;DHT22;7733;51.554;13.590;2024-02-23T09:14:32;8.90;99.90
15262;DHT22;7733;51.554;13.590;2024-02-23T09:16:58;9.20;99.90
15262;DHT22;7733;51.554;13.590;2024-02-23T09:19:24;9.20;99.90
15262;DHT22;7733;51.554;13.590;2024-02-23T09:21:50;9.10;99.90
15262;DHT22;7733;51.554;13.590;2024-02-23T09:24:15;9.30;99.90
15262;DHT22;7733;51.554;13.590;2024-02-23T09:26:41;9.20;99.90
15262;DHT22;7733;51.554;13.590;2024-02-23T09:29:07;9.20;99.90
15262;DHT22;7733;51.554;13.590;2024-02-23T09:31:33;9.30;99.90
15262;DHT22;7733;51.554;13.590;2024-02-23T09:33:59;9.30;99.90
15262;DHT22;7733;51.554;13.590;2024-02-23T09:36:24;9.40;99.90
15262;DHT22;7733;51.554;13.590;2024-02-23T09:38:50;9.30;99.90
15262;DHT22;7733;51.554;13.590;2024-02-23T09:41:20;9.30;99.60
15262;DHT22;7733;51.554;13.590;2024-02-23T09:43:48;9.30;99.90
15262;DHT22;7733;51.554;13.590;2024-02-23T09:46:18;9.10;99.40
15262;DHT22;7733;51.554;13.590;2024-02-23T09:48:44;9.10;99.70
15262;DHT22;7733;51.554;13.590;2024-02-23T09:51:15;9.20;99.90
15262;DHT22;7733;51.554;13.590;2024-02-23T09:53:41;9.30;99.90
15262;DHT22;7733;51.554;13.590;2024-02-23T09:56:10;9.20;99.90
15262;DHT22;7733;51.554;13.590;2024-02-23T09:58:36;9.20;99.90
15262;DHT22;7733;51.554;13.590;2024-02-23T10:01:03;9.30;99.90
15262;DHT22;7733;51.554;13.590;2024-02-23T10:03:30;9.30;99.40
15262;DHT22;7733;51.554;13.590;2024-02-23T10:05:59;9.30;98.90
15262;DHT22;7733;51.554;13.590;2024-02-23T10:08:27;9.20;98.40
15262;DHT22;7733;51.554;13.590;2024-02-23T10:10:54;9.10;98.50
15262;DHT22;7733;51.554;13.590;2024-02-23T10:13:22;9.00;98.20
15262;DHT22;7733;51.554;13.590;2024-02-23T10:15:52;9.20;98.70
15262;DHT22;7733;51.554;13.590;2024-02-23T10:18:19;9.40;99.30
15262;DHT22;7733;51.554;13.590;2024-02-23T10:20:46;9.40;98.70
15262;DHT22;7733;51.554;13.590;2024-02-23T10:23:12;9.80;98.70
15262;DHT22;7733;51.554;13.590;2024-02-23T10:25:38;9.70;97.30
15262;DHT22;7733;51.554;13.590;2024-02-23T10:28:05;9.80;97.80
15262;DHT22;7733;51.554;13.590;2024-02-23T10:30:32;9.90;97.30
15262;DHT22;7733;51.554;13.590;2024-02-23T10:32:59;10.00;97.50
15262;DHT22;7733;51.554;13.590;2024-02-23T10:35:25;10.00;96.90
15262;DHT22;7733;51.554;13.590;2024-02-23T10:37:54;10.00;96.90
15262;DHT22;7733;51.554;13.590;2024-02-23T10:40:21;10.10;97.10
15262;DHT22;7733;51.554;13.590;2024-02-23T10:42:50;9.90;96.40
15262;DHT22;7733;51.554;13.590;2024-02-23T10:45:20;9.90;96.70
15262;DHT22;7733;51.554;13.590;2024-02-23T10:47:50;10.00;96.50
15262;DHT22;7733;51.554;13.590;2024-02-23T10:50:20;10.30;97.00
15262;DHT22;7733;51.554;13.590;2024-02-23T10:52:49;10.30;95.50
15262;DHT22;7733;51.554;13.590;2024-02-23T10:55:15;10.20;95.20
15262;DHT22;7733;51.554;13.590;2024-02-23T10:57:42;10.20;95.70
15262;DHT22;7733;51.554;13.590;2024-02-23T11:00:09;10.20;95.40
15262;DHT22;7733;51.554;13.590;2024-02-23T11:02:39;10.60;95.90
15262;DHT22;7733;51.554;13.590;2024-02-23T11:05:08;10.80;95.50
15262;DHT22;7733;51.554;13.590;2024-02-23T11:07:40;10.70;95.40
15262;DHT22;7733;51.554;13.590;2024-02-23T11:10:07;10.70;95.40
15262;DHT22;7733;51.554;13.590;2024-02-23T11:12:35;10.90;95.30
15262;DHT22;7733;51.554;13.590;2024-02-23T11:15:01;11.10;94.90
15262;DHT22;7733;51.554;13.590;2024-02-23T11:17:30;11.20;95.10
15262;DHT22;7733;51.554;13.590;2024-02-23T11:19:58;10.90;94.80
15262;DHT22;7733;51.554;13.590;2024-02-23T11:22:30;10.90;95.30
15262;DHT22;7733;51.554;13.590;2024-02-23T11:25:07;10.60;95.60
15262;DHT22;7733;51.554;13.590;2024-02-23T11:27:38;10.60;95.20
15262;DHT22;7733;51.554;13.590;2024-02-23T11:30:07;10.50;95.50
15262;DHT22;7733;51.554;13.590;2024-02-23T11:32:43;10.60;95.90
15262;DHT22;7733;51.554;13.590;2024-02-23T11:35:12;10.60;96.10
15262;DHT22;7733;51.554;13.590;2024-02-23T11:40:25;10.00;96.00
15262;DHT22;7733;51.554;13.590;2024-02-23T11:42:55;10.30;96.60
15262;DHT22;7733;51.554;13.590;2024-02-23T11:45:21;10.20;96.30
15262;DHT22;7733;51.554;13.590;2024-02-23T11:47:47;10.40;96.70
15262;DHT22;7733;51.554;13.590;2024-02-23T11:50:13;10.30;96.30
15262;DHT22;7733;51.554;13.590;2024-02-23T11:52:41;10.30;97.00
15262;DHT22;7733;51.554;13.590;2024-02-23T11:55:07;10.40;97.00
15262;DHT22;7733;51.554;13.590;2024-02-23T11:57:36;10.40;96.90
15262;DHT22;7733;51.554;13.590;2024-02-23T12:00:06;10.50;97.00
15262;DHT22;7733;51.554;13.590;2024-02-23T12:02:35;10.50;97.10
15262;DHT22;7733;51.554;13.590;2024-02-23T12:05:01;10.50;97.10
15262;DHT22;7733;51.554;13.590;2024-02-23T12:07:31;10.50;97.30
15262;DHT22;7733;51.554;13.590;2024-02-23T12:09:58;10.30;97.10
15262;DHT22;7733;51.554;13.590;2024-02-23T12:12:27;10.50;97.60
15262;DHT22;7733;51.554;13.590;2024-02-23T12:14:53;10.60;96.50
15262;DHT22;7733;51.554;13.590;2024-02-23T12:17:19;10.50;95.90
15262;DHT22;7733;51.554;13.590;2024-02-23T12:19:45;10.40;95.20
15262;DHT22;7733;51.554;13.590;2024-02-23T12:22:11;10.30;95.10
15262;DHT22;7733;51.554;13.590;2024-02-23T12:24:41;10.50;95.80
15262;DHT22;7733;51.554;13.590;2024-02-23T12:27:07;10.70;96.10
15262;DHT22;7733;51.554;13.590;2024-02-23T12:29:33;10.80;95.30
15262;DHT22;7733;51.554;13.590;2024-02-23T12:32:05;10.70;95.10
15262;DHT22;7733;51.554;13.590;2024-02-23T12:34:32;10.60;95.60
15262;DHT22;7733;51.554;13.590;2024-02-23T12:36:58;10.60;95.70
15262;DHT22;7733;51.554;13.590;2024-02-23T12:39:24;10.60;95.90
15262;DHT22;7733;51.554;13.590;2024-02-23T12:41:50;10.50;95.60
15262;DHT22;7733;51.554;13.590;2024-02-23T12:44:16;10.50;96.10
15262;DHT22;7733;51.554;13.590;2024-02-23T12:46:42;10.60;96.30
15262;DHT22;7733;51.554;13.590;2024-02-23T12:49:10;10.60;96.40
15262;DHT22;7733;51.554;13.590;2024-02-23T12:51:36;10.50;96.80
15262;DHT22;7733;51.554;13.590;2024-02-23T12:54:01;10.50;95.90
15262;DHT22;7733;51.554;13.590;2024-02-23T12:56:28;10.40;96.10
15262;DHT22;7733;51.554;13.590;2024-02-23T12:58:53;10.60;95.80
15262;DHT22;7733;51.554;13.590;2024-02-23T13:01:19;10.60;95.70
15262;DHT22;7733;51.554;13.590;2024-02-23T13:03:45;10.90;95.50
15262;DHT22;7733;51.554;13.590;2024-02-23T13:06:11;10.60;94.10
15262;DHT22;7733;51.554;13.590;2024-02-23T13:08:38;10.50;94.70
15262;DHT22;7733;51.554;13.590;2024-02-23T13:11:06;10.50;94.40
15262;DHT22;7733;51.554;13.590;2024-02-23T13:13:32;10.40;93.60
15262;DHT22;7733;51.554;13.590;2024-02-23T13:15:58;10.60;93.60
15262;DHT22;7733;51.554;13.590;2024-02-23T13:18:24;10.50;93.70
15262;DHT22;7733;51.554;13.590;2024-02-23T13:20:50;10.60;94.00
15262;DHT22;7733;51.554;13.590;2024-02-23T13:23:16;10.50;94.00
15262;DHT22;7733;51.554;13.590;2024-02-23T13:25:42;10.50;93.90
15262;DHT22;7733;51.554;13.590;2024-02-23T13:28:10;10.50;94.60
15262;DHT22;7733;51.554;13.590;2024-02-23T13:30:36;10.60;95.20
15262;DHT22;7733;51.554;13.590;2024-02-23T13:33:04;10.70;95.10
15262;DHT22;7733;51.554;13.590;2024-02-23T13:35:31;10.70;95.10
15262;DHT22;7733;51.554;13.590;2024-02-23T13:37:57;10.70;94.90
15262;DHT22;7733;51.554;13.590;2024-02-23T13:40:23;10.40;94.40
15262;DHT22;7733;51.554;13.590;2024-02-23T13:42:49;10.30;93.60
15262;DHT22;7733;51.554;13.590;2024-02-23T13:45:16;10.20;93.30
15262;DHT22;7733;51.554;13.590;2024-02-23T13:47:43;10.20;93.60
15262;DHT22;7733;51.554;13.590;2024-02-23T13:50:20;10.20;93.30
15262;DHT22;7733;51.554;13.590;2024-02-23T13:52:47;10.20;94.10
15262;DHT22;7733;51.554;13.590;2024-02-23T13:55:13;10.20;94.00
15262;DHT22;7733;51.554;13.590;2024-02-23T13:57:39;10.20;93.50
15262;DHT22;7733;51.554;13.590;2024-02-23T14:00:06;10.10;93.60
15262;DHT22;7733;51.554;13.590;2024-02-23T14:02:37;10.00;93.80
15262;DHT22;7733;51.554;13.590;2024-02-23T14:05:06;10.00;94.50
15262;DHT22;7733;51.554;13.590;2024-02-23T14:07:33;9.90;94.10
15262;DHT22;7733;51.554;13.590;2024-02-23T14:09:59;9.90;94.50
15262;DHT22;7733;51.554;13.590;2024-02-23T14:12:24;9.90;94.60
15262;DHT22;7733;51.554;13.590;2024-02-23T14:14:50;9.80;94.30
15262;DHT22;7733;51.554;13.590;2024-02-23T14:17:16;9.80;94.70
15262;DHT22;7733;51.554;13.590;2024-02-23T14:19:42;9.90;94.70
15262;DHT22;7733;51.554;13.590;2024-02-23T14:22:08;9.80;94.50
15262;DHT22;7733;51.554;13.590;2024-02-23T14:24:33;9.80;94.30
15262;DHT22;7733;51.554;13.590;2024-02-23T14:26:59;9.80;94.20
15262;DHT22;7733;51.554;13.590;2024-02-23T14:29:25;9.70;94.60
15262;DHT22;7733;51.554;13.590;2024-02-23T14:31:51;9.80;94.80
15262;DHT22;7733;51.554;13.590;2024-02-23T14:34:17;9.70;95.40
15262;DHT22;7733;51.554;13.590;2024-02-23T14:36:43;9.70;94.80
15262;DHT22;7733;51.554;13.590;2024-02-23T14:39:09;9.80;95.20
15262;DHT22;7733;51.554;13.590;2024-02-23T14:41:35;10.00;95.20
15262;DHT22;7733;51.554;13.590;2024-02-23T14:44:01;10.00;94.90
15262;DHT22;7733;51.554;13.590;2024-02-23T14:46:27;9.90;95.20
15262;DHT22;7733;51.554;13.590;2024-02-23T14:48:53;9.90;94.90
15262;DHT22;7733;51.554;13.590;2024-02-23T14:51:19;9.90;95.20
15262;DHT22;7733;51.554;13.590;2024-02-23T14:53:45;9.90;95.60
15262;DHT22;7733;51.554;13.590;2024-02-23T14:56:10;9.80;95.70
15262;DHT22;7733;51.554;13.590;2024-02-23T14:58:36;9.90;95.50
15262;DHT22;7733;51.554;13.590;2024-02-23T15:01:03;9.90;95.60
15262;DHT22;7733;51.554;13.590;2024-02-23T15:03:29;10.00;95.60
15262;DHT22;7733;51.554;13.590;2024-02-23T15:05:56;10.00;95.60
15262;DHT22;7733;51.554;13.590;2024-02-23T15:08:22;9.80;95.70
15262;DHT22;7733;51.554;13.590;2024-02-23T15:10:48;9.80;95.60
15262;DHT22;7733;51.554;13.590;2024-02-23T15:13:14;9.70;95.90
15262;DHT22;7733;51.554;13.590;2024-02-23T15:15:40;9.70;96.20
15262;DHT22;7733;51.554;13.590;2024-02-23T15:18:07;9.70;95.90
15262;DHT22;7733;51.554;13.590;2024-02-23T15:20:33;9.70;96.00
15262;DHT22;7733;51.554;13.590;2024-02-23T15:22:59;9.60;95.70
15262;DHT22;7733;51.554;13.590;2024-02-23T15:25:25;9.70;96.10
15262;DHT22;7733;51.554;13.590;2024-02-23T15:27:50;9.80;96.50
15262;DHT22;7733;51.554;13.590;2024-02-23T15:30:18;9.70;96.10
15262;DHT22;7733;51.554;13.590;2024-02-23T15:32:44;9.70;96.80
15262;DHT22;7733;51.554;13.590;2024-02-23T15:35:10;9.60;96.60